createdAt,value
2023-04-09T00:00:35.017Z,67.67
2023-04-09T00:05:34.148Z,67.77
2023-04-09T00:10:31.467Z,67.51
2023-04-09T00:15:31.568Z,67.21
2023-04-09T00:20:28.661Z,67.13
2023-04-09T00:25:25.393Z,67.55
2023-04-09T00:30:24.961Z,68.99
2023-04-09T00:35:21.591Z,68.98
2023-04-09T00:40:18.313Z,68.93
2023-04-09T00:45:15.212Z,69.43
2023-04-09T00:50:12.681Z,70.73
2023-04-09T00:55:09.664Z,70.30
2023-04-09T01:00:07.266Z,69.88
2023-04-09T01:05:04.027Z,70.95
2023-04-09T01:10:05.467Z,71.95
2023-04-09T01:15:08.673Z,72.43
2023-04-09T01:20:09.123Z,71.40
2023-04-09T01:25:17.139Z,70.57
2023-04-09T01:30:16.472Z,70.46
2023-04-09T01:35:14.074Z,71.60
2023-04-09T01:40:11.203Z,71.49
2023-04-09T01:45:09.191Z,71.00
2023-04-09T01:50:07.515Z,70.56
2023-04-09T01:55:04.553Z,69.75
2023-04-09T02:00:01.326Z,70.27
2023-04-09T02:04:58.731Z,69.80
2023-04-09T02:09:57.469Z,69.99
2023-04-09T02:14:54.548Z,69.47
2023-04-09T02:19:53.589Z,68.80
2023-04-09T02:24:50.353Z,68.57
2023-04-09T02:29:48.029Z,68.13
2023-04-09T02:34:45.304Z,68.63
2023-04-09T02:39:41.847Z,69.08
2023-04-09T02:44:38.559Z,68.81
2023-04-09T02:49:36.091Z,69.06
2023-04-09T02:54:32.806Z,68.99
2023-04-09T02:59:32.108Z,68.79
2023-04-09T03:04:29.015Z,68.88
2023-04-09T03:09:26.412Z,68.45
2023-04-09T03:14:24.588Z,66.69
2023-04-09T03:19:21.510Z,66.95
2023-04-09T03:24:18.082Z,67.64
2023-04-09T03:29:15.778Z,68.48
2023-04-09T03:34:12.780Z,68.36
2023-04-09T03:39:09.521Z,67.77
2023-04-09T03:44:12.339Z,68.28
2023-04-09T03:49:44.850Z,68.25
2023-04-09T03:54:52.899Z,68.85
2023-04-09T03:59:53.159Z,68.67
2023-04-09T04:04:52.962Z,68.54
2023-04-09T04:09:53.102Z,68.34
2023-04-09T04:14:49.759Z,68.66
2023-04-09T04:20:03.581Z,68.14
2023-04-09T04:25:06.235Z,68.17
2023-04-09T04:30:03.238Z,67.92
2023-04-09T04:35:10.579Z,67.91
2023-04-09T04:40:08.863Z,68.13
2023-04-09T04:45:10.593Z,67.73
2023-04-09T04:50:26.236Z,66.37
2023-04-09T04:55:35.278Z,66.64
2023-04-09T05:00:32.973Z,67.27
2023-04-09T05:05:33.461Z,68.61
2023-04-09T05:10:30.987Z,70.24
2023-04-09T05:15:30.214Z,70.64
2023-04-09T05:20:27.578Z,70.46
2023-04-09T05:25:35.042Z,67.67
2023-04-09T05:30:32.954Z,66.37
2023-04-09T05:35:33.260Z,64.77
2023-04-09T05:40:30.216Z,64.39
2023-04-09T05:45:28.101Z,64.00
2023-04-09T05:50:25.837Z,65.75
2023-04-09T05:55:24.913Z,63.30
2023-04-09T06:00:28.677Z,62.91
2023-04-09T06:05:28.376Z,62.93
2023-04-09T06:10:25.378Z,68.84
2023-04-09T06:15:22.402Z,71.32
2023-04-09T06:20:19.225Z,71.23
2023-04-09T06:25:16.851Z,73.01
2023-04-09T06:30:13.594Z,75.62
2023-04-09T06:35:11.090Z,76.63
2023-04-09T06:40:08.617Z,76.15
2023-04-09T06:45:08.096Z,76.31
2023-04-09T06:50:05.569Z,77.66
2023-04-09T06:55:02.463Z,78.19
2023-04-09T06:59:59.315Z,79.02
2023-04-09T07:04:56.846Z,77.38
2023-04-09T07:09:53.630Z,76.09
2023-04-09T07:14:50.257Z,75.88
2023-04-09T07:19:51.187Z,75.79
2023-04-09T07:24:53.003Z,74.48
2023-04-09T07:29:50.015Z,75.12
2023-04-09T07:34:46.808Z,73.81
2023-04-09T07:39:43.570Z,71.96
2023-04-09T07:44:41.287Z,70.32
2023-04-09T07:49:39.145Z,70.83
2023-04-09T07:54:35.823Z,69.29
2023-04-09T07:59:32.695Z,65.64
2023-04-09T08:04:30.252Z,64.09
2023-04-09T08:09:27.068Z,60.16
2023-04-09T08:14:24.140Z,56.38
2023-04-09T08:19:20.774Z,52.81
2023-04-09T08:24:18.343Z,51.54
2023-04-09T08:29:15.239Z,49.56
2023-04-09T08:34:12.451Z,49.52
2023-04-09T08:39:08.987Z,49.06
2023-04-09T08:44:06.608Z,49.53
2023-04-09T08:49:03.463Z,48.31
2023-04-09T08:54:03.273Z,47.06
2023-04-09T08:59:00.923Z,49.29
2023-04-09T09:03:59.593Z,49.14
2023-04-09T09:09:03.827Z,46.99
2023-04-09T09:14:01.323Z,46.23
2023-04-09T09:18:59.701Z,47.16
2023-04-09T09:23:58.942Z,46.30
2023-04-09T09:28:58.352Z,47.32
2023-04-09T09:33:56.772Z,45.67
2023-04-09T09:38:55.131Z,42.88
2023-04-09T09:43:52.179Z,41.46
2023-04-09T09:48:49.086Z,42.01
2023-04-09T09:53:49.740Z,40.73
2023-04-09T09:58:52.913Z,40.86
2023-04-09T10:03:52.707Z,40.25
2023-04-09T10:08:50.472Z,39.16
2023-04-09T10:13:50.433Z,40.55
2023-04-09T10:18:47.098Z,39.99
2023-04-09T10:23:46.122Z,40.78
2023-04-09T10:28:43.233Z,40.05
2023-04-09T10:33:43.602Z,39.78
2023-04-09T10:38:40.894Z,39.64
2023-04-09T10:43:37.491Z,40.35
2023-04-09T10:48:34.779Z,39.84
2023-04-09T10:53:32.385Z,41.24
2023-04-09T10:58:28.992Z,39.34
2023-04-09T11:03:26.659Z,39.08
2023-04-09T11:08:33.668Z,39.11
2023-04-09T11:13:31.344Z,38.78
2023-04-09T11:18:30.342Z,38.49
2023-04-09T11:23:28.045Z,40.01
2023-04-09T11:28:26.265Z,42.37
2023-04-09T11:33:25.152Z,39.15
2023-04-09T11:38:21.840Z,39.55
2023-04-09T11:43:22.185Z,39.38
2023-04-09T11:48:21.204Z,40.21
2023-04-09T11:53:18.494Z,40.36
2023-04-09T11:58:15.377Z,40.12
2023-04-09T12:03:12.271Z,41.99
2023-04-09T12:08:10.274Z,41.30
2023-04-09T12:13:07.708Z,40.44
2023-04-09T12:18:07.685Z,41.35
2023-04-09T12:23:05.789Z,41.19
2023-04-09T12:28:03.290Z,41.23
2023-04-09T12:33:00.266Z,39.80
2023-04-09T12:38:01.487Z,40.98
2023-04-09T12:42:58.241Z,41.20
2023-04-09T12:47:55.610Z,41.19
2023-04-09T12:52:52.651Z,41.18
2023-04-09T12:57:50.743Z,41.56
2023-04-09T13:02:47.690Z,39.01
2023-04-09T13:07:45.541Z,39.06
2023-04-09T13:12:42.183Z,40.65
2023-04-09T13:17:38.885Z,39.86
2023-04-09T13:22:35.950Z,40.50
2023-04-09T13:27:33.220Z,39.79
2023-04-09T13:32:29.873Z,41.44
2023-04-09T13:37:26.724Z,38.88
2023-04-09T13:42:23.388Z,38.52
2023-04-09T13:47:21.213Z,40.57
2023-04-09T13:52:18.120Z,39.25
2023-04-09T14:02:33.145Z,38.34
2023-04-09T14:07:30.276Z,36.52
2023-04-09T14:12:26.985Z,37.21
2023-04-09T14:17:24.018Z,36.85
2023-04-09T14:22:21.532Z,37.35
2023-04-09T14:27:20.736Z,39.68
2023-04-09T14:32:18.120Z,38.60
2023-04-09T14:37:14.673Z,37.22
2023-04-09T14:42:12.077Z,38.09
2023-04-09T14:47:08.877Z,36.00
2023-04-09T14:52:05.808Z,36.78
2023-04-09T14:57:05.217Z,37.67
2023-04-09T15:02:03.118Z,38.49
2023-04-09T15:07:00.186Z,37.04
2023-04-09T15:11:57.730Z,36.69
2023-04-09T15:16:55.445Z,37.98
2023-04-09T15:21:52.888Z,37.65
2023-04-09T15:26:50.002Z,38.05
2023-04-09T15:31:49.227Z,38.32
2023-04-09T15:36:56.659Z,37.14
2023-04-09T15:41:53.396Z,34.47
2023-04-09T15:46:50.408Z,34.13
2023-04-09T15:51:46.944Z,35.38
2023-04-09T15:56:44.303Z,35.26
2023-04-09T16:01:40.975Z,35.59
2023-04-09T16:06:38.158Z,37.19
2023-04-09T16:11:38.185Z,38.94
2023-04-09T16:16:38.254Z,39.37
2023-04-09T16:21:34.949Z,40.03
2023-04-09T16:26:31.742Z,40.34
2023-04-09T16:31:28.289Z,40.99
2023-04-09T16:36:26.191Z,41.10
2023-04-09T16:41:22.742Z,42.01
2023-04-09T16:46:19.537Z,41.94
2023-04-09T16:51:16.756Z,42.53
2023-04-09T16:56:14.098Z,42.63
2023-04-09T17:01:10.904Z,43.26
2023-04-09T17:06:07.866Z,43.48
2023-04-09T17:11:04.919Z,43.75
2023-04-09T17:16:02.646Z,44.21
2023-04-09T17:20:59.255Z,44.46
2023-04-09T17:25:56.293Z,44.24
2023-04-09T17:30:53.095Z,44.60
2023-04-09T17:35:50.638Z,44.58
2023-04-09T17:40:47.415Z,45.02
2023-04-09T17:45:44.263Z,44.39
2023-04-09T17:50:41.181Z,44.73
2023-04-09T17:55:38.547Z,44.56
2023-04-09T18:00:35.290Z,44.14
2023-04-09T18:05:33.450Z,43.62
2023-04-09T18:10:30.194Z,44.04
2023-04-09T18:15:28.032Z,45.11
2023-04-09T18:20:27.392Z,44.71
2023-04-09T18:25:24.054Z,44.61
2023-04-09T18:30:20.813Z,44.79
2023-04-09T18:35:21.070Z,44.58
2023-04-09T18:40:19.694Z,44.66
2023-04-09T18:45:16.324Z,45.23
2023-04-09T18:50:14.948Z,44.90
2023-04-09T18:55:13.061Z,45.57
2023-04-09T19:00:10.072Z,46.77
2023-04-09T19:05:07.617Z,47.18
2023-04-09T19:10:04.634Z,47.35
2023-04-09T19:15:04.498Z,47.63
2023-04-09T19:20:11.723Z,46.94
2023-04-09T19:25:09.360Z,46.87
2023-04-09T19:30:07.526Z,46.80
2023-04-09T19:35:04.999Z,46.66
2023-04-09T19:40:03.872Z,46.25
2023-04-09T19:45:00.699Z,45.72
2023-04-09T19:49:57.894Z,46.27
2023-04-09T19:54:54.941Z,46.04
2023-04-09T19:59:51.952Z,46.03
2023-04-09T20:04:48.640Z,46.28
2023-04-09T20:09:46.405Z,46.25
2023-04-09T20:14:43.194Z,46.07
2023-04-09T20:19:40.039Z,46.13
2023-04-09T20:24:37.936Z,47.72
2023-04-09T20:29:35.214Z,52.88
2023-04-09T20:34:32.061Z,53.23
2023-04-09T20:39:32.141Z,51.64
2023-04-09T20:44:29.132Z,50.31
2023-04-09T20:49:27.335Z,48.86
2023-04-09T20:54:24.305Z,48.57
2023-04-09T20:59:21.111Z,52.83
2023-04-09T21:04:18.933Z,53.42
2023-04-09T21:09:16.369Z,52.64
2023-04-09T21:14:14.002Z,52.65
2023-04-09T21:19:10.598Z,54.37
2023-04-09T21:24:07.328Z,53.85
2023-04-09T21:29:04.530Z,53.35
2023-04-09T21:34:01.234Z,55.09
2023-04-09T21:38:57.986Z,55.59
2023-04-09T21:43:54.552Z,57.16
2023-04-09T21:48:52.126Z,56.57
2023-04-09T21:53:49.194Z,57.40
2023-04-09T21:58:46.801Z,56.25
2023-04-09T22:03:43.665Z,56.22
2023-04-09T22:08:55.695Z,55.83
2023-04-09T22:13:53.561Z,57.83
2023-04-09T22:18:50.626Z,60.70
2023-04-09T22:23:47.936Z,61.12
2023-04-09T22:28:44.483Z,63.09
2023-04-09T22:33:41.090Z,61.99
2023-04-09T22:38:37.722Z,60.00
2023-04-09T22:43:35.640Z,58.61
2023-04-09T22:48:35.927Z,57.81
2023-04-09T22:53:37.493Z,56.94
2023-04-09T22:58:35.159Z,57.21
2023-04-09T23:03:32.480Z,57.36
2023-04-09T23:08:29.281Z,57.08
2023-04-09T23:13:25.793Z,56.81
2023-04-09T23:18:22.392Z,56.08
2023-04-09T23:23:20.338Z,55.67
2023-04-09T23:28:17.108Z,55.58
2023-04-09T23:33:13.804Z,55.21
2023-04-09T23:38:10.552Z,54.68
2023-04-09T23:43:07.862Z,54.37
2023-04-09T23:48:05.541Z,54.52
2023-04-09T23:53:03.199Z,54.48
2023-04-09T23:57:59.649Z,54.17
